Time;durP1;ratioP1;P1;durP2;ratioP2;P2;SDS_P1;SDS_P2;PMS_P1;PMS_P2;Temp;Humidity;BMP_temperature;BMP_pressure;BME280_temperature;BME280_humidity;BME280_pressure;Samples;Min_cycle;Max_cycle;Signal;HPM_P1;HPM_P2
2023/03/22 00:01:32;;;;;;;12.23;7.70;;;;;;;;;;4969826;28;20083;-66
2023/03/22 00:03:58;;;;;;;10.50;6.80;;;;;;;;;;4969957;28;20093;-66
2023/03/22 00:06:24;;;;;;;7.57;6.78;;;;;;;;;;4972103;28;20030;-66
2023/03/22 00:08:52;;;;;;;11.15;7.32;;;;;;;;;;4970475;28;20045;-66
2023/03/22 00:11:19;;;;;;;9.30;7.57;;;;;;;;;;4961014;28;20034;-66
2023/03/22 00:13:45;;;;;;;11.30;7.60;;;;;;;;;;4967921;28;20064;-66
2023/03/22 00:16:12;;;;;;;8.20;7.30;;;;;;;;;;4969677;28;20042;-66
2023/03/22 00:18:38;;;;;;;11.77;7.28;;;;;;;;;;4967797;28;20027;-66
2023/03/22 00:21:04;;;;;;;11.32;7.57;;;;;;;;;;4967617;28;20074;-66
2023/03/22 00:23:30;;;;;;;8.15;7.28;;;;;;;;;;4968671;28;20061;-66
2023/03/22 00:25:56;;;;;;;8.40;6.32;;;;;;;;;;4969511;28;20039;-66
2023/03/22 00:28:22;;;;;;;8.63;7.40;;;;;;;;;;4970623;28;20422;-66
2023/03/22 00:31:00;;;;;;;8.40;6.78;;;;;;;;;;4968230;28;20501;-66
2023/03/22 00:33:27;;;;;;;10.20;7.30;;;;;;;;;;4972530;28;20039;-66
2023/03/22 00:35:58;;;;;;;11.57;7.90;;;;;;;;;;4969206;28;20106;-66
2023/03/22 00:38:24;;;;;;;9.40;7.43;;;;;;;;;;4965590;28;20031;-66
2023/03/22 00:40:51;;;;;;;8.27;6.90;;;;;;;;;;4969191;28;20034;-66
2023/03/22 00:43:17;;;;;;;8.32;7.10;;;;;;;;;;4974209;28;20097;-66
2023/03/22 00:45:43;;;;;;;10.90;7.93;;;;;;;;;;4969237;28;20117;-66
2023/03/22 00:48:10;;;;;;;10.63;7.45;;;;;;;;;;4968805;28;20086;-66
2023/03/22 00:50:37;;;;;;;9.27;7.03;;;;;;;;;;4970515;28;20081;-65
2023/03/22 00:53:03;;;;;;;8.68;7.00;;;;;;;;;;4974479;28;20569;-66
2023/03/22 00:55:29;;;;;;;10.60;7.45;;;;;;;;;;4968146;28;20030;-66
2023/03/22 00:57:55;;;;;;;8.30;7.47;;;;;;;;;;4969953;28;20085;-66
2023/03/22 01:00:21;;;;;;;9.20;7.43;;;;;;;;;;4983639;28;20563;-66
2023/03/22 01:02:46;;;;;;;13.73;7.50;;;;;;;;;;4968847;28;20045;-66
2023/03/22 01:05:16;;;;;;;;;;;;;;;;;;4968263;28;20130;-67
2023/03/22 01:07:43;;;;;;;7.78;6.97;;;;;;;;;;4966479;28;19972;-66
2023/03/22 01:10:10;;;;;;;9.82;7.18;;;;;;;;;;4968664;28;20042;-66
2023/03/22 01:12:37;;;;;;;9.48;7.32;;;;;;;;;;4963578;28;20031;-66
2023/03/22 01:15:04;;;;;;;9.82;7.07;;;;;;;;;;4966539;28;20092;-66
2023/03/22 01:17:30;;;;;;;11.57;7.43;;;;;;;;;;4973753;28;20395;-66
2023/03/22 01:19:56;;;;;;;9.02;7.22;;;;;;;;;;4968928;28;20692;-66
2023/03/22 01:22:21;;;;;;;8.93;7.28;;;;;;;;;;4970285;28;20035;-66
2023/03/22 01:24:48;;;;;;;9.27;7.53;;;;;;;;;;4969885;28;20096;-66
2023/03/22 01:27:14;;;;;;;12.63;6.93;;;;;;;;;;4975141;28;20042;-66
2023/03/22 01:29:40;;;;;;;10.68;7.53;;;;;;;;;;4984641;28;20039;-66
2023/03/22 01:32:05;;;;;;;8.32;7.00;;;;;;;;;;4972620;28;20058;-66
2023/03/22 01:34:32;;;;;;;11.82;7.63;;;;;;;;;;4971314;28;20083;-66
2023/03/22 01:36:59;;;;;;;9.60;7.38;;;;;;;;;;4971583;28;20061;-66
2023/03/22 01:39:26;;;;;;;9.95;7.25;;;;;;;;;;4969857;28;20026;-66
2023/03/22 01:41:55;;;;;;;9.82;7.63;;;;;;;;;;4972778;28;20030;-66
2023/03/22 01:44:22;;;;;;;11.00;7.32;;;;;;;;;;4969795;28;20041;-66
2023/03/22 01:46:50;;;;;;;9.97;7.37;;;;;;;;;;4986903;28;20026;-66
2023/03/22 01:49:25;;;;;;;10.43;8.20;;;;;;;;;;4970192;28;20042;-66
2023/03/22 01:51:54;;;;;;;8.52;7.28;;;;;;;;;;4970165;28;20070;-65
2023/03/22 01:54:51;;;;;;;10.85;8.02;;;;;;;;;;4969904;28;20034;-66
2023/03/22 01:57:38;;;;;;;14.27;7.82;;;;;;;;;;4973087;28;20035;-66
2023/03/22 02:00:14;;;;;;;7.22;6.47;;;;;;;;;;4974815;28;20181;-66
2023/03/22 02:02:54;;;;;;;14.57;10.23;;;;;;;;;;4970951;28;20494;-66
2023/03/22 02:05:26;;;;;;;13.18;9.10;;;;;;;;;;4968590;28;20050;-66
2023/03/22 02:07:55;;;;;;;12.55;8.80;;;;;;;;;;4986315;28;20033;-66
2023/03/22 02:10:25;;;;;;;11.02;7.97;;;;;;;;;;4972455;28;20047;-66
2023/03/22 02:13:33;;;;;;;15.52;8.25;;;;;;;;;;4989082;28;20399;-66
2023/03/22 02:16:34;;;;;;;11.93;8.10;;;;;;;;;;4968804;28;20081;-66
2023/03/22 02:19:41;;;;;;;11.88;8.95;;;;;;;;;;4974443;28;20494;-66
2023/03/22 02:22:28;;;;;;;16.15;8.25;;;;;;;;;;4968486;28;20132;-66
2023/03/22 02:25:12;;;;;;;14.20;8.82;;;;;;;;;;4972727;28;20042;-67
2023/03/22 02:27:52;;;;;;;11.63;8.45;;;;;;;;;;4971646;28;20057;-67
2023/03/22 02:30:20;;;;;;;;;;;;;;;;;;4970783;28;20109;-66
2023/03/22 02:32:46;;;;;;;8.38;7.57;;;;;;;;;;4986843;28;19914;-66
2023/03/22 02:35:29;;;;;;;13.77;8.18;;;;;;;;;;4969652;28;20050;-67
2023/03/22 02:38:16;;;;;;;8.75;7.35;;;;;;;;;;4983984;28;20146;-66
2023/03/22 02:41:10;;;;;;;11.13;8.73;;;;;;;;;;4966472;28;20398;-67
2023/03/22 02:43:56;;;;;;;12.77;8.27;;;;;;;;;;4970143;28;20042;-67
2023/03/22 02:46:29;;;;;;;13.65;8.95;;;;;;;;;;4972957;28;20041;-67
2023/03/22 02:49:12;;;;;;;10.45;8.52;;;;;;;;;;4967059;28;20046;-66
2023/03/22 02:51:51;;;;;;;9.20;7.65;;;;;;;;;;4984839;28;20776;-67
2023/03/22 02:54:32;;;;;;;11.48;8.43;;;;;;;;;;4970357;28;20495;-67
2023/03/22 02:57:06;;;;;;;10.98;8.30;;;;;;;;;;4985811;28;20050;-67
2023/03/22 02:59:36;;;;;;;10.60;8.93;;;;;;;;;;4967984;28;20034;-66
2023/03/22 03:02:07;;;;;;;10.10;8.50;;;;;;;;;;4972202;28;20118;-66
2023/03/22 03:04:41;;;;;;;11.90;8.93;;;;;;;;;;4978216;28;20511;-67
2023/03/22 03:07:10;;;;;;;11.23;9.23;;;;;;;;;;4969202;28;20114;-67
2023/03/22 03:09:38;;;;;;;11.73;9.13;;;;;;;;;;4973448;28;20034;-67
2023/03/22 03:12:13;;;;;;;;;;;;;;;;;;4974137;28;20045;-67
2023/03/22 03:14:39;;;;;;;12.07;8.40;;;;;;;;;;4966798;28;19921;-67
2023/03/22 03:17:08;;;;;;;12.25;8.55;;;;;;;;;;4970747;28;20061;-66
2023/03/22 03:19:58;;;;;;;13.95;8.52;;;;;;;;;;4975089;28;20102;-67
2023/03/22 03:22:46;;;;;;;9.25;8.13;;;;;;;;;;4984951;28;20070;-67
2023/03/22 03:25:29;;;;;;;10.80;8.68;;;;;;;;;;4964102;28;20074;-67
2023/03/22 03:28:12;;;;;;;12.30;8.98;;;;;;;;;;4970671;28;20031;-67
2023/03/22 03:31:02;;;;;;;16.25;9.68;;;;;;;;;;4965084;28;20510;-68
2023/03/22 03:33:31;;;;;;;11.73;8.57;;;;;;;;;;4968158;28;20093;-67
2023/03/22 03:36:12;;;;;;;11.55;8.98;;;;;;;;;;4974553;28;20110;-66
2023/03/22 03:38:42;;;;;;;10.70;9.45;;;;;;;;;;4960278;28;20031;-66
2023/03/22 03:41:13;;;;;;;14.93;8.60;;;;;;;;;;4962709;28;20062;-67
2023/03/22 03:43:42;;;;;;;13.02;7.97;;;;;;;;;;4968626;28;20035;-65
2023/03/22 03:46:08;;;;;;;8.77;7.30;;;;;;;;;;4969033;28;20402;-67
2023/03/22 03:48:38;;;;;;;12.07;7.88;;;;;;;;;;4966814;28;20043;-67
2023/03/22 03:51:03;;;;;;;9.65;8.65;;;;;;;;;;4981698;28;20049;-67
2023/03/22 03:53:30;;;;;;;13.48;8.80;;;;;;;;;;4974603;28;20043;-67
2023/03/22 03:55:55;;;;;;;9.18;8.10;;;;;;;;;;4970551;28;20168;-66
2023/03/22 03:58:22;;;;;;;11.30;8.40;;;;;;;;;;4958905;28;20034;-67
2023/03/22 04:00:49;;;;;;;11.95;9.05;;;;;;;;;;4966207;28;20050;-67
2023/03/22 04:03:30;;;;;;;12.40;9.40;;;;;;;;;;4966484;28;20121;-67
2023/03/22 04:06:02;;;;;;;14.00;8.57;;;;;;;;;;4975522;28;20049;-67
2023/03/22 04:08:30;;;;;;;10.57;9.18;;;;;;;;;;4968192;28;20431;-67
2023/03/22 04:10:57;;;;;;;12.25;8.88;;;;;;;;;;4971111;28;20117;-67
2023/03/22 04:13:23;;;;;;;11.80;8.23;;;;;;;;;;4966972;28;20322;-67
2023/03/22 04:15:56;;;;;;;10.25;8.32;;;;;;;;;;4968106;28;20632;-66
2023/03/22 04:18:22;;;;;;;9.80;7.80;;;;;;;;;;4968304;28;20027;-67
2023/03/22 04:20:48;;;;;;;12.57;8.63;;;;;;;;;;4964902;28;20093;-66
2023/03/22 04:23:15;;;;;;;10.82;7.97;;;;;;;;;;4972331;28;20037;-67
2023/03/22 04:25:49;;;;;;;13.40;8.07;;;;;;;;;;4968687;28;20426;-67
2023/03/22 04:28:19;;;;;;;11.40;8.10;;;;;;;;;;4964287;28;20034;-67
2023/03/22 04:30:50;;;;;;;6.35;5.00;;;;;;;;;;4964872;28;20050;-66
2023/03/22 04:33:53;;;;;;;9.07;7.40;;;;;;;;;;4967523;28;20046;-66
2023/03/22 04:36:49;;;;;;;11.48;8.00;;;;;;;;;;4965715;28;20053;-67
2023/03/22 04:39:35;;;;;;;9.48;8.40;;;;;;;;;;4976594;28;20113;-67
2023/03/22 04:42:33;;;;;;;10.35;8.38;;;;;;;;;;4955193;28;20047;-67
2023/03/22 04:45:16;;;;;;;10.40;8.40;;;;;;;;;;4970298;28;20030;-66
2023/03/22 04:47:47;;;;;;;12.85;7.60;;;;;;;;;;4968044;28;20463;-66
2023/03/22 04:50:13;;;;;;;7.57;6.07;;;;;;;;;;4968072;28;20593;-67
2023/03/22 04:53:00;;;;;;;8.23;6.80;;;;;;;;;;4971463;28;20130;-67
2023/03/22 04:55:26;;;;;;;13.65;8.02;;;;;;;;;;4964528;28;20165;-65
2023/03/22 04:57:53;;;;;;;6.03;5.50;;;;;;;;;;4970239;28;20046;-65
2023/03/22 05:00:21;;;;;;;7.47;6.07;;;;;;;;;;4972707;28;20498;-64
2023/03/22 05:02:47;;;;;;;11.90;8.32;;;;;;;;;;4969044;28;20035;-66
2023/03/22 05:05:20;;;;;;;6.68;5.20;;;;;;;;;;4973244;28;20042;-67
2023/03/22 05:07:50;;;;;;;13.60;7.97;;;;;;;;;;4989258;28;20058;-66
2023/03/22 05:10:16;;;;;;;6.00;4.78;;;;;;;;;;4970896;28;20039;-67
2023/03/22 05:12:42;;;;;;;10.80;7.50;;;;;;;;;;4971413;28;20030;-67
2023/03/22 05:15:17;;;;;;;5.95;5.45;;;;;;;;;;4976139;28;20035;-66
2023/03/22 05:17:44;;;;;;;6.45;5.78;;;;;;;;;;4970289;28;20113;-67
2023/03/22 05:20:10;;;;;;;12.40;7.68;;;;;;;;;;4968930;28;20086;-67
2023/03/22 05:22:39;;;;;;;7.43;6.55;;;;;;;;;;4973874;28;20797;-67
2023/03/22 05:25:07;;;;;;;66.15;30.25;;;;;;;;;;4971428;28;20177;-67
2023/03/22 05:27:34;;;;;;;10.02;8.43;;;;;;;;;;4974003;28;20478;-67
2023/03/22 05:30:15;;;;;;;11.07;8.52;;;;;;;;;;4968554;28;20177;-66
2023/03/22 05:32:49;;;;;;;12.80;8.63;;;;;;;;;;4991525;28;20031;-68
2023/03/22 05:35:14;;;;;;;8.63;7.72;;;;;;;;;;4975394;28;20050;-67
2023/03/22 05:37:45;;;;;;;8.95;6.75;;;;;;;;;;4969034;28;20189;-66
2023/03/22 05:40:13;;;;;;;8.68;7.47;;;;;;;;;;4964778;28;20042;-67
2023/03/22 05:42:42;;;;;;;5.68;5.18;;;;;;;;;;4972229;28;20124;-67
2023/03/22 05:45:15;;;;;;;14.57;10.93;;;;;;;;;;4976111;28;20043;-67
2023/03/22 05:47:44;;;;;;;13.60;10.15;;;;;;;;;;4967577;28;20043;-67
2023/03/22 05:50:21;;;;;;;11.27;7.50;;;;;;;;;;4968897;28;20117;-67
2023/03/22 05:52:48;;;;;;;8.98;7.63;;;;;;;;;;4967581;28;20039;-67
2023/03/22 05:55:24;;;;;;;11.75;7.63;;;;;;;;;;4966965;28;20042;-67
2023/03/22 05:57:55;;;;;;;16.33;14.50;;;;;;;;;;4962414;28;20035;-67
2023/03/22 06:00:22;;;;;;;11.65;8.43;;;;;;;;;;4967470;28;20501;-67
2023/03/22 06:03:14;;;;;;;14.75;8.50;;;;;;;;;;4961443;28;20109;-67
2023/03/22 06:05:43;;;;;;;12.43;10.85;;;;;;;;;;4969776;28;20110;-67
2023/03/22 06:08:10;;;;;;;10.40;7.60;;;;;;;;;;4969333;28;20439;-67
2023/03/22 06:10:35;;;;;;;10.00;8.15;;;;;;;;;;4966875;28;20097;-67
2023/03/22 06:13:01;;;;;;;10.23;7.95;;;;;;;;;;4950893;28;20034;-67
2023/03/22 06:15:30;;;;;;;12.20;8.00;;;;;;;;;;4972460;28;20121;-67
2023/03/22 06:18:05;;;;;;;8.23;7.30;;;;;;;;;;4972888;28;20070;-67
2023/03/22 06:20:35;;;;;;;8.85;7.53;;;;;;;;;;4970277;28;20042;-67
2023/03/22 06:23:07;;;;;;;9.05;7.55;;;;;;;;;;4986029;28;20770;-67
2023/03/22 06:25:34;;;;;;;10.32;7.55;;;;;;;;;;4970050;28;20114;-67
2023/03/22 06:28:00;;;;;;;9.95;8.10;;;;;;;;;;4965740;28;20126;-67
2023/03/22 06:30:26;;;;;;;9.05;8.13;;;;;;;;;;4982963;28;20322;-67
2023/03/22 06:33:12;;;;;;;8.15;7.45;;;;;;;;;;4975082;28;20125;-67
2023/03/22 06:35:41;;;;;;;12.07;7.55;;;;;;;;;;4967378;28;20027;-67
2023/03/22 06:38:10;;;;;;;12.90;8.15;;;;;;;;;;4981654;28;20081;-67
2023/03/22 06:40:37;;;;;;;10.98;7.10;;;;;;;;;;4977371;28;20065;-67
2023/03/22 06:43:03;;;;;;;10.60;7.18;;;;;;;;;;4970187;28;20070;-67
2023/03/22 06:45:32;;;;;;;13.27;7.20;;;;;;;;;;4971694;28;20038;-66
2023/03/22 06:47:59;;;;;;;10.00;7.13;;;;;;;;;;4985595;28;20049;-66
2023/03/22 06:50:43;;;;;;;9.60;6.80;;;;;;;;;;4969485;28;20041;-65
2023/03/22 06:53:12;;;;;;;10.25;7.00;;;;;;;;;;4952063;28;20038;-68
2023/03/22 06:55:39;;;;;;;8.95;6.13;;;;;;;;;;4987651;28;20027;-68
2023/03/22 06:58:16;;;;;;;7.57;6.78;;;;;;;;;;4968418;28;20039;-66
2023/03/22 07:00:42;;;;;;;8.10;7.15;;;;;;;;;;4974802;28;20031;-66
2023/03/22 07:03:08;;;;;;;8.95;7.13;;;;;;;;;;4972057;28;20042;-65
2023/03/22 07:05:58;;;;;;;10.35;7.20;;;;;;;;;;4973223;28;20034;-66
2023/03/22 07:08:24;;;;;;;11.27;7.25;;;;;;;;;;4969495;28;20031;-65
2023/03/22 07:10:51;;;;;;;8.38;7.18;;;;;;;;;;4971742;28;20046;-66
2023/03/22 07:13:20;;;;;;;11.97;7.57;;;;;;;;;;4972383;28;20046;-66
2023/03/22 07:15:47;;;;;;;10.75;7.47;;;;;;;;;;4963122;28;20037;-66
2023/03/22 07:18:28;;;;;;;8.35;7.25;;;;;;;;;;4966377;28;20084;-66
2023/03/22 07:20:55;;;;;;;7.95;7.00;;;;;;;;;;4968008;28;20114;-66
2023/03/22 07:23:20;;;;;;;10.82;6.32;;;;;;;;;;4971441;28;20109;-66
2023/03/22 07:25:50;;;;;;;;;;;;;;;;;;4971458;28;20094;-66
2023/03/22 07:28:28;;;;;;;9.10;6.00;;;;;;;;;;4970468;28;19953;-65
2023/03/22 07:31:03;;;;;;;8.95;6.43;;;;;;;;;;4969063;28;20494;-66
2023/03/22 07:33:39;;;;;;;6.85;5.80;;;;;;;;;;4977607;28;20049;-66
2023/03/22 07:36:06;;;;;;;10.07;5.90;;;;;;;;;;4969556;28;20281;-66
2023/03/22 07:38:33;;;;;;;6.45;5.70;;;;;;;;;;4982042;28;20023;-66
2023/03/22 07:40:59;;;;;;;6.38;5.78;;;;;;;;;;4967626;28;20101;-66
2023/03/22 07:43:36;;;;;;;7.00;5.28;;;;;;;;;;4968248;28;20034;-65
2023/03/22 07:46:10;;;;;;;5.13;4.63;;;;;;;;;;4954173;28;20037;-66
2023/03/22 07:49:13;;;;;;;5.30;4.80;;;;;;;;;;4969138;28;20129;-67
2023/03/22 07:52:03;;;;;;;4.85;4.45;;;;;;;;;;4970329;28;20046;-67
2023/03/22 07:54:29;;;;;;;5.10;4.60;;;;;;;;;;4982886;28;20103;-67
2023/03/22 07:56:55;;;;;;;6.35;4.82;;;;;;;;;;4967450;28;20031;-67
2023/03/22 07:59:21;;;;;;;5.53;5.00;;;;;;;;;;4971136;28;20034;-68
2023/03/22 08:01:49;;;;;;;5.20;4.72;;;;;;;;;;4987514;28;20490;-67
2023/03/22 08:04:29;;;;;;;;;;;;;;;;;;4982347;28;20038;-67
2023/03/22 08:07:10;;;;;;;5.53;4.75;;;;;;;;;;4974665;28;19921;-67
2023/03/22 08:09:37;;;;;;;7.65;5.32;;;;;;;;;;4976318;28;20031;-66
2023/03/22 08:12:02;;;;;;;5.47;4.97;;;;;;;;;;4970769;28;20038;-67
2023/03/22 08:14:29;;;;;;;8.23;4.88;;;;;;;;;;4967367;28;20041;-67
2023/03/22 08:16:55;;;;;;;4.40;4.00;;;;;;;;;;4968468;28;20062;-67
2023/03/22 08:19:22;;;;;;;4.88;3.90;;;;;;;;;;4971792;28;20030;-67
2023/03/22 08:21:48;;;;;;;5.03;4.45;;;;;;;;;;4968736;28;20387;-67
2023/03/22 08:24:29;;;;;;;8.35;4.22;;;;;;;;;;4960246;28;20026;-67
2023/03/22 08:27:03;;;;;;;4.70;4.20;;;;;;;;;;4972924;28;20525;-67
2023/03/22 08:29:40;;;;;;;6.65;4.47;;;;;;;;;;4967739;28;20045;-67
2023/03/22 08:32:06;;;;;;;4.18;3.88;;;;;;;;;;4988939;28;20042;-67
2023/03/22 08:34:38;;;;;;;7.72;4.53;;;;;;;;;;4968642;28;20034;-67
2023/03/22 08:37:05;;;;;;;5.68;5.15;;;;;;;;;;4971091;28;20502;-67
2023/03/22 08:39:32;;;;;;;5.80;5.20;;;;;;;;;;4968287;28;20022;-67
2023/03/22 08:42:29;;;;;;;4.97;4.25;;;;;;;;;;4959451;28;20043;-67
2023/03/22 08:44:55;;;;;;;6.18;4.30;;;;;;;;;;4987186;28;20033;-67
2023/03/22 08:47:24;;;;;;;8.05;4.38;;;;;;;;;;4969732;28;20065;-67
2023/03/22 08:49:55;;;;;;;5.63;4.22;;;;;;;;;;4971730;28;20059;-66
2023/03/22 08:52:27;;;;;;;4.35;4.05;;;;;;;;;;4982631;28;20035;-67
2023/03/22 08:54:58;;;;;;;4.32;4.03;;;;;;;;;;4970189;28;20165;-67
2023/03/22 08:57:49;;;;;;;4.32;3.92;;;;;;;;;;4966792;28;20034;-67
2023/03/22 09:00:50;;;;;;;4.82;3.60;;;;;;;;;;4975702;28;20107;-67
2023/03/22 09:03:31;;;;;;;4.10;3.70;;;;;;;;;;4968706;28;20038;-67
2023/03/22 09:05:57;;;;;;;4.55;3.50;;;;;;;;;;4965827;28;20402;-67
2023/03/22 09:08:23;;;;;;;5.35;3.70;;;;;;;;;;4967474;28;20039;-67
2023/03/22 09:10:55;;;;;;;5.70;3.95;;;;;;;;;;4971397;28;20026;-67
2023/03/22 09:13:22;;;;;;;4.07;3.78;;;;;;;;;;4948994;28;20027;-66
2023/03/22 09:15:56;;;;;;;4.18;3.85;;;;;;;;;;4967049;28;20062;-67
2023/03/22 09:18:25;;;;;;;3.80;3.50;;;;;;;;;;4966972;28;20094;-67
2023/03/22 09:20:52;;;;;;;6.85;3.42;;;;;;;;;;4972054;28;20530;-67
2023/03/22 09:23:22;;;;;;;3.80;3.50;;;;;;;;;;4966953;28;20034;-67
2023/03/22 09:25:48;;;;;;;4.00;3.60;;;;;;;;;;4972006;28;20079;-67
2023/03/22 09:28:19;;;;;;;3.92;3.63;;;;;;;;;;4947249;28;20101;-67
2023/03/22 09:30:45;;;;;;;4.22;3.40;;;;;;;;;;4971725;28;20042;-67
2023/03/22 09:33:13;;;;;;;3.55;3.30;;;;;;;;;;4967285;28;20042;-67
2023/03/22 09:35:42;;;;;;;4.60;3.58;;;;;;;;;;4987122;28;20038;-67
2023/03/22 09:38:09;;;;;;;4.15;3.35;;;;;;;;;;4966083;28;20042;-66
2023/03/22 09:40:37;;;;;;;3.92;3.20;;;;;;;;;;4966455;28;20046;-67
2023/03/22 09:43:08;;;;;;;3.72;3.45;;;;;;;;;;4972109;28;20315;-67
2023/03/22 09:45:47;;;;;;;3.70;3.40;;;;;;;;;;4970111;28;20125;-66
2023/03/22 09:48:32;;;;;;;3.67;3.30;;;;;;;;;;4969421;28;20034;-66
2023/03/22 09:51:00;;;;;;;3.50;3.30;;;;;;;;;;4976878;28;20030;-66
2023/03/22 09:53:28;;;;;;;4.32;3.70;;;;;;;;;;4978367;28;20494;-66
2023/03/22 09:56:02;;;;;;;3.60;3.30;;;;;;;;;;4972304;28;20027;-66
2023/03/22 09:58:49;;;;;;;3.58;3.25;;;;;;;;;;4970434;28;20050;-65
2023/03/22 10:01:35;;;;;;;3.20;3.00;;;;;;;;;;4970491;28;20043;-66
2023/03/22 10:04:29;;;;;;;3.58;3.28;;;;;;;;;;4971111;28;20039;-66
2023/03/22 10:07:17;;;;;;;3.40;3.20;;;;;;;;;;4975064;28;20042;-66
2023/03/22 10:10:06;;;;;;;3.53;3.33;;;;;;;;;;4973698;28;20138;-66
2023/03/22 10:12:38;;;;;;;3.40;3.20;;;;;;;;;;4972600;28;20034;-65
2023/03/22 10:15:33;;;;;;;4.00;3.70;;;;;;;;;;4973934;28;20038;-66
2023/03/22 10:18:01;;;;;;;4.00;3.70;;;;;;;;;;4965827;28;20093;-66
2023/03/22 10:20:30;;;;;;;3.85;3.50;;;;;;;;;;4973117;28;20075;-66
2023/03/22 10:23:00;;;;;;;3.95;3.60;;;;;;;;;;4969562;28;20041;-66
2023/03/22 10:25:38;;;;;;;4.05;3.58;;;;;;;;;;4974171;28;20490;-66
2023/03/22 10:28:18;;;;;;;3.77;3.20;;;;;;;;;;4970696;28;20045;-66
2023/03/22 10:30:49;;;;;;;4.32;4.00;;;;;;;;;;4968895;28;20038;-65
2023/03/22 10:33:49;;;;;;;4.25;3.88;;;;;;;;;;4975185;28;20045;-66
2023/03/22 10:36:17;;;;;;;3.47;3.13;;;;;;;;;;4979313;28;20521;-66
2023/03/22 10:38:47;;;;;;;3.60;3.23;;;;;;;;;;4972467;28;20026;-66
2023/03/22 10:41:16;;;;;;;3.67;3.38;;;;;;;;;;4968976;28;20042;-65
2023/03/22 10:43:43;;;;;;;3.83;3.63;;;;;;;;;;4973328;28;20052;-67
2023/03/22 10:46:19;;;;;;;3.80;3.45;;;;;;;;;;4970856;28;20069;-68
2023/03/22 10:48:48;;;;;;;3.70;3.50;;;;;;;;;;4969879;28;20043;-66
2023/03/22 10:51:41;;;;;;;3.55;3.22;;;;;;;;;;4973538;28;20043;-66
2023/03/22 10:54:12;;;;;;;3.65;3.45;;;;;;;;;;4968167;28;20101;-67
2023/03/22 10:56:37;;;;;;;4.18;3.60;;;;;;;;;;4972667;28;20053;-65
2023/03/22 10:59:04;;;;;;;3.80;3.35;;;;;;;;;;4970257;28;20398;-66
2023/03/22 11:01:33;;;;;;;3.97;3.67;;;;;;;;;;4980518;28;20031;-66
2023/03/22 11:04:11;;;;;;;4.05;3.75;;;;;;;;;;4970875;28;20304;-65
2023/03/22 11:06:39;;;;;;;5.65;4.20;;;;;;;;;;4968299;28;20117;-65
2023/03/22 11:09:22;;;;;;;3.60;3.40;;;;;;;;;;4996373;28;20046;-67
2023/03/22 11:12:01;;;;;;;3.70;3.50;;;;;;;;;;4969812;28;20058;-66
2023/03/22 11:14:32;;;;;;;3.50;3.22;;;;;;;;;;4967459;28;20030;-67
2023/03/22 11:17:18;;;;;;;3.20;3.00;;;;;;;;;;4969893;28;20035;-67
2023/03/22 11:20:02;;;;;;;3.50;3.20;;;;;;;;;;4971951;28;20030;-68
2023/03/22 11:22:38;;;;;;;3.63;3.40;;;;;;;;;;4973928;28;20133;-68
2023/03/22 11:25:32;;;;;;;3.25;3.05;;;;;;;;;;4969223;28;20031;-65
2023/03/22 11:28:04;;;;;;;3.45;3.15;;;;;;;;;;4970775;28;20491;-67
2023/03/22 11:30:31;;;;;;;3.40;3.20;;;;;;;;;;4969324;28;20043;-67
2023/03/22 11:33:17;;;;;;;3.50;3.30;;;;;;;;;;4968271;28;20225;-67
2023/03/22 11:35:45;;;;;;;3.83;3.42;;;;;;;;;;4967992;28;20121;-67
2023/03/22 11:38:28;;;;;;;3.75;3.40;;;;;;;;;;4968075;28;20097;-67
2023/03/22 11:41:22;;;;;;;3.42;3.20;;;;;;;;;;4969013;28;20062;-67
2023/03/22 11:43:52;;;;;;;4.53;3.45;;;;;;;;;;4970534;28;20050;-67
2023/03/22 11:46:18;;;;;;;4.35;3.72;;;;;;;;;;4971112;28;20623;-67
2023/03/22 11:48:50;;;;;;;3.70;3.50;;;;;;;;;;4973151;28;20034;-67
2023/03/22 11:51:29;;;;;;;4.10;3.80;;;;;;;;;;4964835;28;20282;-67
2023/03/22 11:54:02;;;;;;;3.63;3.42;;;;;;;;;;4968977;28;20074;-67
2023/03/22 11:56:29;;;;;;;4.00;3.72;;;;;;;;;;4969007;28;20499;-67
2023/03/22 11:58:58;;;;;;;4.15;3.70;;;;;;;;;;4969916;28;20045;-67
2023/03/22 12:01:39;;;;;;;3.40;3.20;;;;;;;;;;4970320;28;20039;-67
2023/03/22 12:04:12;;;;;;;3.60;3.40;;;;;;;;;;4972919;28;20069;-67
2023/03/22 12:06:40;;;;;;;3.67;3.47;;;;;;;;;;4979452;28;20046;-67
2023/03/22 12:09:09;;;;;;;5.72;3.30;;;;;;;;;;4987073;28;20038;-66
2023/03/22 12:11:46;;;;;;;3.83;3.63;;;;;;;;;;4969648;28;20047;-67
2023/03/22 12:14:41;;;;;;;4.53;3.70;;;;;;;;;;4978761;28;20050;-66
2023/03/22 12:17:31;;;;;;;3.75;3.55;;;;;;;;;;4971281;28;20038;-66
2023/03/22 12:20:18;;;;;;;3.70;3.50;;;;;;;;;;4968277;28;20050;-66
2023/03/22 12:22:51;;;;;;;3.95;3.75;;;;;;;;;;4973264;28;20094;-66
2023/03/22 12:25:22;;;;;;;4.13;3.92;;;;;;;;;;4967536;28;20093;-67
2023/03/22 12:27:53;;;;;;;4.43;3.90;;;;;;;;;;4962087;28;20031;-66
2023/03/22 12:30:23;;;;;;;4.45;4.20;;;;;;;;;;4974990;28;20553;-67
2023/03/22 12:32:55;;;;;;;3.88;3.60;;;;;;;;;;4972086;28;20383;-66
2023/03/22 12:35:26;;;;;;;4.00;3.80;;;;;;;;;;4955446;28;20125;-67
2023/03/22 12:37:55;;;;;;;4.88;4.07;;;;;;;;;;4986257;28;20589;-66
2023/03/22 12:40:27;;;;;;;4.13;3.90;;;;;;;;;;4968424;28;20058;-67
2023/03/22 12:43:04;;;;;;;4.30;4.00;;;;;;;;;;4985650;28;20030;-67
2023/03/22 12:45:34;;;;;;;4.20;3.90;;;;;;;;;;4970580;28;20129;-67
2023/03/22 12:48:16;;;;;;;4.60;4.32;;;;;;;;;;4971856;28;20042;-67
2023/03/22 12:50:54;;;;;;;4.28;4.07;;;;;;;;;;4975496;28;20034;-66
2023/03/22 12:53:21;;;;;;;4.57;4.28;;;;;;;;;;4971629;28;20026;-66
2023/03/22 12:55:48;;;;;;;4.30;4.10;;;;;;;;;;4963357;28;20034;-67
2023/03/22 12:58:19;;;;;;;4.10;3.80;;;;;;;;;;4968931;28;20033;-67
2023/03/22 13:00:51;;;;;;;4.82;4.28;;;;;;;;;;4982797;28;20538;-67
2023/03/22 13:03:17;;;;;;;4.13;3.90;;;;;;;;;;4969061;28;20360;-67
2023/03/22 13:05:57;;;;;;;4.20;3.90;;;;;;;;;;4967299;28;20049;-65
2023/03/22 13:08:23;;;;;;;4.22;3.95;;;;;;;;;;4972541;28;20049;-66
2023/03/22 13:11:01;;;;;;;4.30;4.00;;;;;;;;;;4967910;28;20043;-67
2023/03/22 13:13:27;;;;;;;4.30;4.10;;;;;;;;;;4967084;28;20045;-66
2023/03/22 13:16:09;;;;;;;4.35;4.05;;;;;;;;;;4966574;28;20362;-66
2023/03/22 13:18:35;;;;;;;4.13;3.90;;;;;;;;;;4972968;28;20042;-67
2023/03/22 13:21:18;;;;;;;4.13;3.92;;;;;;;;;;4970481;28;20113;-67
2023/03/22 13:23:59;;;;;;;4.20;3.90;;;;;;;;;;4966606;28;20034;-67
2023/03/22 13:26:53;;;;;;;4.40;4.10;;;;;;;;;;4968237;28;20097;-66
2023/03/22 13:29:23;;;;;;;4.00;3.80;;;;;;;;;;4986127;28;20035;-67
2023/03/22 13:32:24;;;;;;;4.38;4.18;;;;;;;;;;4969455;28;20466;-67
2023/03/22 13:34:51;;;;;;;4.20;4.00;;;;;;;;;;4974258;28;20054;-67
2023/03/22 13:37:33;;;;;;;4.47;4.28;;;;;;;;;;4970367;28;20073;-67
2023/03/22 13:40:04;;;;;;;4.15;3.85;;;;;;;;;;4967940;28;20038;-66
2023/03/22 13:42:40;;;;;;;5.30;4.00;;;;;;;;;;4968772;28;20047;-66
2023/03/22 13:45:32;;;;;;;4.15;3.85;;;;;;;;;;4969504;28;20085;-66
2023/03/22 13:48:39;;;;;;;4.40;4.00;;;;;;;;;;4981484;28;20113;-66
2023/03/22 13:51:26;;;;;;;4.03;3.83;;;;;;;;;;4971942;28;20046;-66
2023/03/22 13:54:15;;;;;;;4.22;3.92;;;;;;;;;;4968937;28;20330;-67
2023/03/22 13:56:43;;;;;;;4.03;3.72;;;;;;;;;;4969351;28;20041;-66
2023/03/22 13:59:12;;;;;;;5.07;4.13;;;;;;;;;;4969847;28;20041;-66
2023/03/22 14:02:20;;;;;;;4.47;4.18;;;;;;;;;;4967161;28;20043;-66
2023/03/22 14:04:51;;;;;;;4.55;4.25;;;;;;;;;;4966680;28;20043;-66
2023/03/22 14:07:51;;;;;;;4.40;4.10;;;;;;;;;;4968310;28;20039;-67
2023/03/22 14:10:20;;;;;;;4.25;4.05;;;;;;;;;;4964544;28;20039;-66
2023/03/22 14:13:12;;;;;;;4.40;4.00;;;;;;;;;;4968580;28;20047;-66
2023/03/22 14:15:43;;;;;;;4.25;4.05;;;;;;;;;;4968035;28;20121;-66
2023/03/22 14:18:28;;;;;;;4.60;3.85;;;;;;;;;;4978883;28;20104;-66
2023/03/22 14:21:12;;;;;;;4.22;4.03;;;;;;;;;;4966529;28;20060;-66
2023/03/22 14:23:41;;;;;;;4.10;3.90;;;;;;;;;;4967294;28;20046;-66
2023/03/22 14:26:18;;;;;;;3.78;3.58;;;;;;;;;;4967905;28;20042;-66
2023/03/22 14:28:44;;;;;;;4.03;3.80;;;;;;;;;;4965140;28;20053;-66
2023/03/22 14:31:21;;;;;;;4.18;3.90;;;;;;;;;;4967929;28;20387;-66
2023/03/22 14:33:47;;;;;;;3.92;3.65;;;;;;;;;;4967727;28;20097;-66
2023/03/22 14:36:15;;;;;;;4.47;3.75;;;;;;;;;;4971107;28;20042;-66
2023/03/22 14:38:44;;;;;;;4.32;4.03;;;;;;;;;;4966558;28;20122;-66
2023/03/22 14:41:15;;;;;;;4.55;4.30;;;;;;;;;;4967647;28;20038;-66
2023/03/22 14:43:45;;;;;;;4.80;4.43;;;;;;;;;;4969583;28;20042;-66
2023/03/22 14:46:24;;;;;;;4.40;4.20;;;;;;;;;;4964325;28;20035;-66
2023/03/22 14:48:58;;;;;;;4.85;4.38;;;;;;;;;;4969348;28;20038;-66
2023/03/22 14:51:30;;;;;;;4.90;3.95;;;;;;;;;;4968493;28;20039;-66
2023/03/22 14:53:57;;;;;;;4.57;4.22;;;;;;;;;;4969748;28;20422;-66
2023/03/22 14:56:32;;;;;;;4.78;4.20;;;;;;;;;;4966750;28;20030;-66
2023/03/22 14:59:00;;;;;;;4.10;3.90;;;;;;;;;;4970315;28;20042;-66
2023/03/22 15:01:40;;;;;;;4.10;3.90;;;;;;;;;;4973233;28;20463;-66
2023/03/22 15:04:09;;;;;;;4.30;4.10;;;;;;;;;;4973916;28;20090;-66
2023/03/22 15:06:45;;;;;;;4.50;4.10;;;;;;;;;;4967000;28;20066;-66
2023/03/22 15:09:13;;;;;;;4.53;4.20;;;;;;;;;;4967236;28;20405;-67
2023/03/22 15:11:39;;;;;;;4.50;4.10;;;;;;;;;;4969196;28;20027;-66
2023/03/22 15:14:06;;;;;;;4.78;4.47;;;;;;;;;;4969370;28;20129;-66
2023/03/22 15:16:34;;;;;;;4.20;3.90;;;;;;;;;;4967219;28;20034;-66
2023/03/22 15:19:02;;;;;;;4.57;4.25;;;;;;;;;;4969177;28;20035;-66